createdAt,value
2018-07-10T00:02:20.843Z,15.61
2018-07-10T00:07:06.420Z,15.61
2018-07-10T00:10:43.345Z,15.53
2018-07-10T00:13:11.375Z,15.49
2018-07-10T00:15:39.448Z,15.47
2018-07-10T00:18:07.464Z,15.42
2018-07-10T00:20:35.507Z,15.41
2018-07-10T00:23:03.568Z,15.44
2018-07-10T00:25:31.608Z,15.46
2018-07-10T00:27:59.624Z,15.51
2018-07-10T00:30:27.656Z,15.54
2018-07-10T00:32:55.692Z,15.51
2018-07-10T00:35:23.736Z,15.43
2018-07-10T00:39:03.201Z,15.41
2018-07-10T00:41:33.579Z,15.37
2018-07-10T00:44:02.257Z,15.36
2018-07-10T00:46:31.439Z,15.38
2018-07-10T00:48:59.496Z,15.37
2018-07-10T00:51:28.224Z,15.38
2018-07-10T00:53:56.253Z,15.39
2018-07-10T00:56:24.300Z,15.38
2018-07-10T00:58:53.960Z,15.40
2018-07-10T01:01:23.080Z,15.40
2018-07-10T01:03:51.331Z,15.41
2018-07-10T01:06:19.395Z,15.40
2018-07-10T01:08:47.876Z,15.38
2018-07-10T01:11:16.871Z,15.37
2018-07-10T01:13:45.955Z,15.36
2018-07-10T01:16:16.684Z,15.33
2018-07-10T01:18:45.807Z,15.33
2018-07-10T01:21:16.217Z,15.31
2018-07-10T01:23:44.272Z,15.31
2018-07-10T01:26:13.086Z,15.26
2018-07-10T01:28:41.781Z,15.26
2018-07-10T01:31:09.807Z,15.27
2018-07-10T01:33:37.901Z,15.23
2018-07-10T01:36:07.205Z,15.20
2018-07-10T01:38:36.052Z,15.12
2018-07-10T01:41:04.216Z,15.10
2018-07-10T01:43:32.535Z,15.08
2018-07-10T01:46:00.656Z,15.06
2018-07-10T01:48:28.686Z,15.02
2018-07-10T01:50:56.716Z,15.03
2018-07-10T01:53:24.753Z,15.03
2018-07-10T01:55:52.815Z,15.02
2018-07-10T01:58:21.166Z,14.95
2018-07-10T02:00:49.412Z,14.93
2018-07-10T02:03:17.465Z,14.88
2018-07-10T02:05:45.508Z,14.84
2018-07-10T02:08:13.548Z,14.80
2018-07-10T02:10:41.578Z,14.80
2018-07-10T02:13:09.616Z,14.81
2018-07-10T02:15:37.656Z,14.79
2018-07-10T02:18:05.692Z,14.78
2018-07-10T02:20:44.320Z,14.77
2018-07-10T02:23:12.359Z,14.75
2018-07-10T02:25:40.399Z,14.70
2018-07-10T02:28:08.432Z,14.69
2018-07-10T02:30:36.741Z,14.71
2018-07-10T02:33:04.769Z,14.73
2018-07-10T02:35:32.801Z,14.70
2018-07-10T02:38:01.216Z,14.70
2018-07-10T02:40:29.247Z,14.70
2018-07-10T02:42:57.315Z,14.68
2018-07-10T02:45:25.344Z,14.65
2018-07-10T02:47:53.407Z,14.63
2018-07-10T02:50:21.449Z,14.60
2018-07-10T02:52:49.488Z,14.52
2018-07-10T02:55:17.715Z,14.49
2018-07-10T02:57:45.776Z,14.47
2018-07-10T03:00:13.809Z,14.48
2018-07-10T03:02:41.843Z,14.50
2018-07-10T03:05:09.872Z,14.50
2018-07-10T03:07:38.380Z,14.53
2018-07-10T03:10:06.404Z,14.54
2018-07-10T03:12:36.660Z,14.52
2018-07-10T03:15:05.852Z,14.46
2018-07-10T03:17:34.112Z,14.44
2018-07-10T03:20:04.141Z,14.46
2018-07-10T03:22:32.185Z,14.48
2018-07-10T03:25:00.291Z,14.46
2018-07-10T03:27:28.349Z,14.46
2018-07-10T03:29:56.636Z,14.48
2018-07-10T03:32:24.679Z,14.50
2018-07-10T03:34:52.721Z,14.53
2018-07-10T03:37:20.748Z,14.54
2018-07-10T03:39:49.292Z,14.56
2018-07-10T03:42:17.414Z,14.59
2018-07-10T03:44:46.238Z,14.60
2018-07-10T03:47:16.288Z,14.60
2018-07-10T03:49:45.352Z,14.59
2018-07-10T03:52:15.294Z,14.57
2018-07-10T03:54:43.895Z,14.60
2018-07-10T03:57:13.490Z,14.62
2018-07-10T03:59:46.120Z,14.64
2018-07-10T04:02:14.144Z,14.66
2018-07-10T04:04:42.416Z,14.68
2018-07-10T04:07:10.454Z,14.70
2018-07-10T04:09:38.856Z,14.73
2018-07-10T04:12:06.911Z,14.77
2018-07-10T04:14:34.936Z,14.79
2018-07-10T04:17:03.648Z,14.84
2018-07-10T04:19:31.704Z,14.89
2018-07-10T04:22:01.803Z,14.91
2018-07-10T04:24:29.927Z,14.92
2018-07-10T04:27:04.364Z,14.92
2018-07-10T04:29:38.376Z,14.93
2018-07-10T04:32:08.887Z,14.93
2018-07-10T04:34:36.932Z,14.96
2018-07-10T04:37:07.558Z,14.97
2018-07-10T04:39:36.003Z,14.99
2018-07-10T04:42:12.317Z,15.03
2018-07-10T04:44:41.535Z,15.07
2018-07-10T04:47:16.555Z,15.09
2018-07-10T04:49:49.957Z,15.11
2018-07-10T04:52:24.676Z,15.16
2018-07-10T04:54:59.297Z,15.19
2018-07-10T04:57:31.722Z,15.23
2018-07-10T05:00:03.233Z,15.27
2018-07-10T05:02:31.260Z,15.33
2018-07-10T05:04:59.292Z,15.40
2018-07-10T05:07:27.331Z,15.50
2018-07-10T05:09:55.656Z,15.58
2018-07-10T05:12:23.708Z,15.65
2018-07-10T05:14:52.551Z,15.70
2018-07-10T05:17:20.524Z,15.72
2018-07-10T05:19:48.825Z,15.70
2018-07-10T05:22:17.303Z,15.72
2018-07-10T05:24:45.579Z,15.74
2018-07-10T05:27:13.852Z,15.78
2018-07-10T05:29:41.945Z,15.80
2018-07-10T05:32:10.924Z,15.82
2018-07-10T05:34:39.790Z,15.84
2018-07-10T05:37:08.842Z,15.85
2018-07-10T05:39:41.540Z,15.86
2018-07-10T05:42:09.831Z,15.89
2018-07-10T05:44:37.944Z,15.91
2018-07-10T05:47:05.972Z,15.93
2018-07-10T05:49:38.965Z,15.93
2018-07-10T05:52:07.059Z,15.95
2018-07-10T05:54:37.261Z,15.93
2018-07-10T05:57:05.831Z,15.92
2018-07-10T05:59:33.868Z,15.93
2018-07-10T06:02:01.901Z,15.96
2018-07-10T06:04:29.997Z,15.93
2018-07-10T06:06:59.131Z,15.90
2018-07-10T06:09:27.165Z,15.88
2018-07-10T06:11:55.199Z,15.87
2018-07-10T06:14:23.392Z,15.82
2018-07-10T06:16:51.672Z,15.80
2018-07-10T06:19:19.716Z,15.84
2018-07-10T06:21:49.730Z,15.91
2018-07-10T06:24:27.212Z,15.88
2018-07-10T06:27:02.244Z,15.83
2018-07-10T06:29:39.992Z,15.81
2018-07-10T06:32:08.036Z,15.84
2018-07-10T06:34:38.228Z,15.89
2018-07-10T06:37:08.257Z,15.88
2018-07-10T06:39:36.306Z,15.84
2018-07-10T06:42:08.468Z,15.74
2018-07-10T06:44:37.463Z,15.67
2018-07-10T06:47:28.587Z,15.66
2018-07-10T06:49:58.376Z,15.64
2018-07-10T06:52:26.489Z,15.69
2018-07-10T06:55:07.237Z,15.73
2018-07-10T06:57:36.546Z,15.71
2018-07-10T07:00:06.841Z,15.75
2018-07-10T07:02:36.163Z,15.83
2018-07-10T07:05:04.203Z,15.89
2018-07-10T07:07:34.046Z,15.90
2018-07-10T07:10:03.725Z,16.01
2018-07-10T07:12:32.092Z,16.07
2018-07-10T07:15:00.172Z,16.07
2018-07-10T07:17:28.773Z,16.03
2018-07-10T07:19:56.884Z,16.04
2018-07-10T07:22:24.912Z,16.08
2018-07-10T07:24:52.944Z,16.11
2018-07-10T07:27:21.008Z,16.17
2018-07-10T07:29:49.035Z,16.22
2018-07-10T07:32:17.083Z,16.20
2018-07-10T07:34:45.112Z,16.23
2018-07-10T07:37:13.184Z,16.32
2018-07-10T07:39:43.490Z,16.39
2018-07-10T07:42:11.529Z,16.47
2018-07-10T07:44:39.552Z,16.59
2018-07-10T07:47:07.584Z,16.67
2018-07-10T07:49:35.607Z,16.70
2018-07-10T07:52:03.647Z,16.74
2018-07-10T07:54:31.688Z,16.76
2018-07-10T07:56:59.747Z,16.84
2018-07-10T07:59:27.788Z,16.86
2018-07-10T08:01:55.836Z,16.88
2018-07-10T08:04:23.844Z,16.90
2018-07-10T08:06:51.908Z,16.96
2018-07-10T08:09:19.945Z,17.09
2018-07-10T08:11:47.988Z,17.25
2018-07-10T08:14:17.342Z,17.41
2018-07-10T08:16:45.628Z,17.57
2018-07-10T08:19:15.091Z,17.75
2018-07-10T08:21:45.304Z,17.87
2018-07-10T08:24:13.335Z,18.08
2018-07-10T08:26:41.409Z,18.68
2018-07-10T08:29:10.159Z,18.99
2018-07-10T08:31:38.187Z,18.96
2018-07-10T08:34:06.253Z,18.84
2018-07-10T08:36:34.243Z,18.79
2018-07-10T08:39:02.331Z,18.96
2018-07-10T08:41:39.336Z,19.28
2018-07-10T08:44:07.364Z,19.35
2018-07-10T08:46:35.393Z,19.28
2018-07-10T08:49:03.432Z,19.17
2018-07-10T08:51:31.468Z,19.07
2018-07-10T08:53:59.503Z,19.06
2018-07-10T08:56:27.560Z,19.15
2018-07-10T08:58:55.580Z,19.22
2018-07-10T09:01:23.720Z,19.14
2018-07-10T09:03:51.766Z,19.05
2018-07-10T09:06:19.795Z,19.01
2018-07-10T09:08:47.831Z,19.05
2018-07-10T09:11:15.875Z,19.14
2018-07-10T09:13:43.962Z,19.36
2018-07-10T09:16:11.944Z,19.58
2018-07-10T09:18:39.992Z,19.63
2018-07-10T09:21:08.021Z,19.71
2018-07-10T09:23:36.064Z,19.86
2018-07-10T09:26:05.081Z,19.82
2018-07-10T09:28:35.016Z,19.69
2018-07-10T09:31:03.770Z,19.61
2018-07-10T09:33:31.887Z,19.48
2018-07-10T09:36:00.038Z,19.49
2018-07-10T09:38:28.090Z,19.47
2018-07-10T09:40:56.571Z,19.40
2018-07-10T09:43:26.067Z,19.32
2018-07-10T09:45:54.453Z,19.26
2018-07-10T09:48:22.489Z,19.16
2018-07-10T09:50:50.900Z,19.23
2018-07-10T09:53:18.961Z,19.24
2018-07-10T09:55:46.996Z,19.54
2018-07-10T09:58:15.037Z,20.15
2018-07-10T10:00:48.411Z,20.75
2018-07-10T10:03:16.475Z,21.33
2018-07-10T10:05:45.120Z,21.58
2018-07-10T10:08:13.360Z,21.88
2018-07-10T10:10:41.484Z,22.30
2018-07-10T10:13:09.704Z,22.69
2018-07-10T10:15:38.274Z,22.90
2018-07-10T10:18:08.093Z,23.01
2018-07-10T10:20:36.871Z,23.13
2018-07-10T10:23:05.440Z,23.41
2018-07-10T10:25:35.457Z,23.20
2018-07-10T10:28:05.064Z,23.06
2018-07-10T10:30:33.551Z,22.93
2018-07-10T10:33:02.017Z,22.68
2018-07-10T10:35:30.171Z,22.42
2018-07-10T10:37:58.500Z,22.26
2018-07-10T10:40:27.572Z,21.86
2018-07-10T10:42:55.603Z,21.99
2018-07-10T10:45:23.936Z,22.54
2018-07-10T10:47:51.955Z,22.98
2018-07-10T10:50:20.065Z,22.95
2018-07-10T10:52:48.668Z,22.95
2018-07-10T10:55:16.708Z,23.06
2018-07-10T10:57:44.795Z,22.88
2018-07-10T11:00:12.832Z,22.71
2018-07-10T11:02:40.915Z,22.30
2018-07-10T11:05:08.936Z,22.00
2018-07-10T11:07:37.032Z,21.85
2018-07-10T11:10:05.117Z,21.66
2018-07-10T11:12:34.108Z,21.58
2018-07-10T11:15:03.833Z,21.83
2018-07-10T11:17:33.379Z,22.47
2018-07-10T11:20:08.779Z,22.60
2018-07-10T11:22:46.353Z,22.26
2018-07-10T11:25:14.553Z,22.01
2018-07-10T11:28:04.839Z,22.35
2018-07-10T11:30:33.310Z,22.43
2018-07-10T11:33:02.504Z,22.28
2018-07-10T11:35:30.655Z,22.28
2018-07-10T11:38:00.680Z,22.11
2018-07-10T11:40:28.753Z,22.22
2018-07-10T11:42:56.785Z,22.45
2018-07-10T11:45:24.847Z,22.42
2018-07-10T11:47:52.964Z,22.31
2018-07-10T11:50:21.089Z,22.20
2018-07-10T11:52:49.132Z,22.14
2018-07-10T11:55:17.172Z,22.27
2018-07-10T11:57:45.219Z,22.23
2018-07-10T12:00:13.308Z,22.10
2018-07-10T12:02:44.268Z,22.02
2018-07-10T12:05:13.256Z,21.96
2018-07-10T12:07:41.556Z,22.28
2018-07-10T12:10:21.887Z,22.66
2018-07-10T12:12:50.884Z,22.63
2018-07-10T12:15:19.067Z,22.62
2018-07-10T12:17:49.984Z,22.62
2018-07-10T12:21:47.964Z,22.52
2018-07-10T12:24:16.164Z,22.78
2018-07-10T12:26:44.207Z,22.84
2018-07-10T12:29:12.468Z,22.81
2018-07-10T12:31:40.512Z,22.84
2018-07-10T12:34:08.539Z,23.04
2018-07-10T12:36:37.060Z,23.42
2018-07-10T12:39:05.684Z,23.48
2018-07-10T12:41:33.793Z,23.22
2018-07-10T12:44:01.796Z,23.05
2018-07-10T12:46:29.835Z,23.01
2018-07-10T12:48:57.871Z,23.04
2018-07-10T12:51:25.946Z,23.12
2018-07-10T12:53:54.000Z,23.24
2018-07-10T12:56:22.061Z,23.11
2018-07-10T12:58:50.124Z,22.98
2018-07-10T13:01:18.168Z,23.05
2018-07-10T13:03:47.500Z,23.03
2018-07-10T13:06:15.548Z,23.32
2018-07-10T13:08:43.593Z,23.75
2018-07-10T13:11:11.627Z,23.81
2018-07-10T13:13:39.676Z,23.87
2018-07-10T13:16:07.742Z,23.96
2018-07-10T13:18:35.818Z,23.91
2018-07-10T13:21:03.915Z,23.93
2018-07-10T13:23:31.952Z,24.13
2018-07-10T13:26:00.016Z,24.33
2018-07-10T13:28:28.052Z,24.31
2018-07-10T13:30:56.127Z,23.95
2018-07-10T13:33:24.187Z,23.68
2018-07-10T13:35:52.271Z,23.50
2018-07-10T13:38:21.550Z,23.28
2018-07-10T13:40:50.242Z,23.10
2018-07-10T13:43:18.347Z,23.11
2018-07-10T13:45:46.328Z,23.18
2018-07-10T13:48:14.374Z,23.18
2018-07-10T13:50:42.425Z,23.21
2018-07-10T13:53:10.476Z,23.30
2018-07-10T13:55:38.523Z,23.73
2018-07-10T13:58:14.891Z,23.90
2018-07-10T14:00:46.392Z,23.74
2018-07-10T14:03:14.404Z,23.51
2018-07-10T14:05:42.672Z,23.33
2018-07-10T14:08:10.773Z,23.04
2018-07-10T14:10:39.154Z,22.75
2018-07-10T14:13:07.509Z,22.54
2018-07-10T14:15:35.552Z,22.30
2018-07-10T14:18:04.059Z,22.05
2018-07-10T14:20:40.728Z,21.85
2018-07-10T14:23:08.777Z,21.80
2018-07-10T14:25:36.835Z,21.66
2018-07-10T14:28:04.912Z,21.67
2018-07-10T14:30:33.006Z,21.66
2018-07-10T14:33:01.053Z,21.85
2018-07-10T14:35:29.444Z,22.15
2018-07-10T14:38:00.394Z,22.13
2018-07-10T14:40:28.440Z,21.96
2018-07-10T14:42:56.584Z,21.89
2018-07-10T14:45:24.660Z,21.91
2018-07-10T14:47:53.485Z,21.82
2018-07-10T14:50:22.300Z,21.82
2018-07-10T14:52:50.374Z,21.85
2018-07-10T14:55:18.421Z,21.87
2018-07-10T14:57:46.464Z,21.81
2018-07-10T15:00:14.512Z,21.66
2018-07-10T15:02:42.603Z,21.54
2018-07-10T15:05:10.654Z,21.49
2018-07-10T15:07:38.702Z,21.48
2018-07-10T15:10:06.792Z,21.46
2018-07-10T15:12:34.844Z,21.49
2018-07-10T15:15:03.088Z,21.44
2018-07-10T15:17:36.474Z,21.40
2018-07-10T15:20:06.580Z,21.49
2018-07-10T15:22:36.316Z,21.54
2018-07-10T15:25:04.359Z,21.59
2018-07-10T15:27:32.420Z,21.58
2018-07-10T15:30:00.871Z,21.61
2018-07-10T15:32:28.897Z,21.57
2018-07-10T15:34:57.433Z,21.52
2018-07-10T15:37:25.484Z,21.58
2018-07-10T15:39:54.404Z,21.54
2018-07-10T15:42:22.444Z,21.48
2018-07-10T15:44:50.489Z,21.44
2018-07-10T15:47:18.528Z,21.39
2018-07-10T15:49:46.565Z,21.39
2018-07-10T15:52:14.624Z,21.51
2018-07-10T15:54:42.688Z,21.59
2018-07-10T15:57:10.772Z,21.72
2018-07-10T15:59:38.829Z,21.75
2018-07-10T16:02:06.905Z,21.87
2018-07-10T16:04:34.984Z,21.96
2018-07-10T16:07:03.737Z,22.02
2018-07-10T16:09:31.789Z,22.10
2018-07-10T16:12:05.692Z,22.16
2018-07-10T16:14:34.452Z,22.16
2018-07-10T16:17:12.349Z,22.22
2018-07-10T16:19:43.603Z,22.24
2018-07-10T16:22:19.733Z,22.31
2018-07-10T16:24:49.303Z,22.25
2018-07-10T16:27:23.881Z,22.24
2018-07-10T16:29:51.928Z,22.25
2018-07-10T16:32:20.004Z,22.31
2018-07-10T16:34:48.052Z,22.34
2018-07-10T16:37:16.096Z,22.27
2018-07-10T16:39:44.157Z,22.22
2018-07-10T16:42:17.757Z,22.23
2018-07-10T16:44:45.837Z,22.23
2018-07-10T16:47:36.401Z,22.20
2018-07-10T16:50:06.436Z,22.19
2018-07-10T16:52:39.205Z,22.13
2018-07-10T16:55:07.264Z,22.10
2018-07-10T16:57:35.390Z,22.01
2018-07-10T17:00:03.430Z,22.02
2018-07-10T17:02:31.472Z,22.03
2018-07-10T17:04:59.608Z,21.99
2018-07-10T17:07:27.652Z,21.95
2018-07-10T17:09:55.710Z,21.90
2018-07-10T17:12:23.746Z,21.86
2018-07-10T17:14:54.918Z,21.85
2018-07-10T17:17:23.268Z,21.89
2018-07-10T17:19:51.978Z,21.93
2018-07-10T17:22:20.244Z,21.94
2018-07-10T17:24:48.299Z,21.87
2018-07-10T17:27:18.311Z,21.88
2018-07-10T17:29:46.364Z,21.89
2018-07-10T17:32:14.420Z,21.91
2018-07-10T17:34:42.463Z,21.89
2018-07-10T17:37:10.608Z,21.87
2018-07-10T17:39:38.662Z,21.86
2018-07-10T17:42:06.700Z,21.86
2018-07-10T17:44:34.956Z,21.84
2018-07-10T17:47:03.005Z,21.74
2018-07-10T17:49:31.056Z,21.71
2018-07-10T17:51:59.096Z,21.67
2018-07-10T17:54:27.176Z,21.67
2018-07-10T17:56:55.195Z,21.70
2018-07-10T17:59:23.270Z,21.59
2018-07-10T18:01:51.312Z,21.54
2018-07-10T18:04:19.359Z,21.44
2018-07-10T18:06:47.424Z,21.42
2018-07-10T18:09:15.471Z,21.39
2018-07-10T18:11:43.548Z,21.39
2018-07-10T18:14:11.580Z,21.37
2018-07-10T18:16:39.621Z,21.30
2018-07-10T18:19:07.688Z,21.25
2018-07-10T18:21:36.296Z,21.17
2018-07-10T18:24:04.548Z,21.10
2018-07-10T18:26:32.636Z,21.13
2018-07-10T18:29:00.676Z,21.14
2018-07-10T18:31:28.733Z,21.15
2018-07-10T18:33:56.784Z,21.19
2018-07-10T18:36:24.899Z,21.20
2018-07-10T18:38:52.874Z,21.13
2018-07-10T18:41:20.922Z,21.13
2018-07-10T18:43:48.956Z,21.06
2018-07-10T18:46:17.071Z,21.06
2018-07-10T18:48:45.208Z,21.01
2018-07-10T18:51:13.421Z,20.98
2018-07-10T18:53:42.416Z,20.93
2018-07-10T18:56:10.461Z,20.88
2018-07-10T18:58:51.203Z,20.89
2018-07-10T19:01:24.020Z,20.84
2018-07-10T19:03:52.245Z,20.77
2018-07-10T19:06:21.717Z,20.76
2018-07-10T19:08:49.800Z,20.75
2018-07-10T19:11:22.959Z,20.71
2018-07-10T19:13:51.404Z,20.66
2018-07-10T19:16:19.451Z,20.67
2018-07-10T19:18:51.275Z,20.67
2018-07-10T19:21:21.748Z,20.63
2018-07-10T19:23:51.114Z,20.60
2018-07-10T19:26:22.340Z,20.59
2018-07-10T19:28:51.103Z,20.58
2018-07-10T19:31:21.365Z,20.52
2018-07-10T19:33:53.191Z,20.50
2018-07-10T19:36:21.235Z,20.44
2018-07-10T19:38:49.268Z,20.38
2018-07-10T19:41:18.904Z,20.32
2018-07-10T19:43:46.944Z,20.26
2018-07-10T19:46:14.993Z,20.22
2018-07-10T19:48:46.867Z,20.20
2018-07-10T19:51:14.910Z,20.19
2018-07-10T19:53:43.185Z,20.09
2018-07-10T19:56:11.232Z,20.07
2018-07-10T19:58:41.560Z,20.02
2018-07-10T20:01:21.485Z,20.05
2018-07-10T20:04:58.868Z,20.00
2018-07-10T20:07:34.885Z,19.94
2018-07-10T20:10:07.864Z,19.88
2018-07-10T20:12:52.417Z,19.82
2018-07-10T20:15:57.964Z,19.75
2018-07-10T20:18:29.716Z,19.73
2018-07-10T20:21:01.860Z,19.70
2018-07-10T20:23:43.387Z,19.65
2018-07-10T20:26:18.548Z,19.64
2018-07-10T20:28:51.128Z,19.63
2018-07-10T20:31:27.975Z,19.63
2018-07-10T20:34:09.363Z,19.61
2018-07-10T20:36:38.642Z,19.58
2018-07-10T20:39:07.060Z,19.55
2018-07-10T20:42:45.488Z,19.52
2018-07-10T20:45:13.533Z,19.46
2018-07-10T20:47:48.048Z,19.39
2018-07-10T20:50:21.109Z,19.36
2018-07-10T20:52:51.869Z,19.30
2018-07-10T20:55:19.899Z,19.25
2018-07-10T20:57:56.193Z,19.23
2018-07-10T21:00:24.258Z,19.18
2018-07-10T21:03:04.708Z,19.13
2018-07-10T21:05:36.885Z,19.07
2018-07-10T21:08:18.463Z,19.02
2018-07-10T21:10:50.633Z,18.95
2018-07-10T21:14:26.404Z,18.89
2018-07-10T21:17:07.281Z,18.77
2018-07-10T21:19:46.343Z,18.68
2018-07-10T21:22:27.018Z,18.64
2018-07-10T21:25:05.085Z,18.60
2018-07-10T21:27:44.991Z,18.56
2018-07-10T21:30:19.648Z,18.54
2018-07-10T21:32:59.425Z,18.49
2018-07-10T21:35:32.975Z,18.46
2018-07-10T21:38:06.931Z,18.43
2018-07-10T21:40:47.120Z,18.42
2018-07-10T21:43:21.204Z,18.39
2018-07-10T21:45:59.672Z,18.34
2018-07-10T21:48:40.419Z,18.31
2018-07-10T21:51:08.456Z,18.27
2018-07-10T21:53:36.488Z,18.22
2018-07-10T21:56:04.832Z,18.17
2018-07-10T21:58:33.272Z,18.15
2018-07-10T22:01:38.773Z,18.12
2018-07-10T22:04:06.803Z,18.06
2018-07-10T22:06:34.852Z,18.02
2018-07-10T22:09:02.890Z,17.99
2018-07-10T22:11:30.932Z,17.97
2018-07-10T22:13:58.953Z,17.95
2018-07-10T22:16:26.983Z,17.92
2018-07-10T22:18:55.020Z,17.86
2018-07-10T22:21:23.060Z,17.84
2018-07-10T22:23:51.619Z,17.80
2018-07-10T22:26:19.661Z,17.77
2018-07-10T22:28:47.689Z,17.73
2018-07-10T22:31:21.079Z,17.69
2018-07-10T22:33:49.109Z,17.65
2018-07-10T22:36:17.149Z,17.59
2018-07-10T22:38:45.185Z,17.53
2018-07-10T22:41:13.228Z,17.49
2018-07-10T22:43:41.265Z,17.45
2018-07-10T22:46:09.289Z,17.41
2018-07-10T22:48:37.321Z,17.36
2018-07-10T22:51:05.348Z,17.32
2018-07-10T22:53:33.656Z,17.28
2018-07-10T22:56:02.372Z,17.24
2018-07-10T22:58:30.423Z,17.21
2018-07-10T23:00:58.447Z,17.16
2018-07-10T23:03:26.672Z,17.10
2018-07-10T23:05:55.136Z,17.07
2018-07-10T23:08:29.628Z,17.03
2018-07-10T23:10:59.119Z,16.98
2018-07-10T23:13:27.656Z,16.92
2018-07-10T23:15:55.695Z,16.88
2018-07-10T23:18:23.742Z,16.86
2018-07-10T23:20:51.767Z,16.82
2018-07-10T23:23:20.355Z,16.78
2018-07-10T23:25:48.421Z,16.72
2018-07-10T23:28:16.455Z,16.68
2018-07-10T23:30:44.737Z,16.65
2018-07-10T23:33:14.336Z,16.60
2018-07-10T23:35:44.151Z,16.55
2018-07-10T23:38:55.475Z,16.51
2018-07-10T23:41:31.304Z,16.45
2018-07-10T23:43:59.776Z,16.38
2018-07-10T23:46:32.059Z,16.33
2018-07-10T23:49:08.764Z,16.26
2018-07-10T23:51:48.234Z,16.22
2018-07-10T23:54:16.556Z,16.17
2018-07-10T23:56:44.596Z,16.12
2018-07-10T23:59:12.619Z,16.09
